sensor_id;sensor_type;location;lat;lon;timestamp;P1;durP1;ratioP1;P2;durP2;ratioP2
8871;SDS011;4472;52.092;9.820;2023-06-22T00:01:18;12.07;;;10.57;;
8871;SDS011;4472;52.092;9.820;2023-06-22T00:04:06;12.90;;;11.13;;
8871;SDS011;4472;52.092;9.820;2023-06-22T00:06:53;13.10;;;10.77;;
8871;SDS011;4472;52.092;9.820;2023-06-22T00:09:40;14.73;;;10.60;;
8871;SDS011;4472;52.092;9.820;2023-06-22T00:12:29;13.90;;;10.50;;
8871;SDS011;4472;52.092;9.820;2023-06-22T00:15:17;16.77;;;11.17;;
8871;SDS011;4472;52.092;9.820;2023-06-22T00:18:04;12.13;;;10.93;;
8871;SDS011;4472;52.092;9.820;2023-06-22T00:20:52;13.30;;;11.33;;
8871;SDS011;4472;52.092;9.820;2023-06-22T00:23:42;15.67;;;11.50;;
8871;SDS011;4472;52.092;9.820;2023-06-22T00:26:30;15.60;;;11.37;;
8871;SDS011;4472;52.092;9.820;2023-06-22T00:29:18;15.20;;;11.27;;
8871;SDS011;4472;52.092;9.820;2023-06-22T00:32:05;20.70;;;11.23;;
8871;SDS011;4472;52.092;9.820;2023-06-22T00:34:53;18.13;;;10.53;;
8871;SDS011;4472;52.092;9.820;2023-06-22T00:37:40;16.50;;;10.93;;
8871;SDS011;4472;52.092;9.820;2023-06-22T00:40:27;14.97;;;10.70;;
8871;SDS011;4472;52.092;9.820;2023-06-22T00:43:15;18.77;;;11.40;;
8871;SDS011;4472;52.092;9.820;2023-06-22T00:46:03;16.47;;;11.40;;
8871;SDS011;4472;52.092;9.820;2023-06-22T00:48:50;17.37;;;10.80;;
8871;SDS011;4472;52.092;9.820;2023-06-22T00:51:42;17.80;;;11.80;;
8871;SDS011;4472;52.092;9.820;2023-06-22T00:54:31;17.73;;;10.83;;
8871;SDS011;4472;52.092;9.820;2023-06-22T00:57:18;14.20;;;10.80;;
8871;SDS011;4472;52.092;9.820;2023-06-22T01:00:06;17.70;;;11.57;;
8871;SDS011;4472;52.092;9.820;2023-06-22T01:02:58;16.37;;;11.37;;
8871;SDS011;4472;52.092;9.820;2023-06-22T01:05:45;15.63;;;11.03;;
8871;SDS011;4472;52.092;9.820;2023-06-22T01:08:35;14.50;;;10.00;;
8871;SDS011;4472;52.092;9.820;2023-06-22T01:11:31;15.60;;;10.73;;
8871;SDS011;4472;52.092;9.820;2023-06-22T01:14:24;24.13;;;11.70;;
8871;SDS011;4472;52.092;9.820;2023-06-22T01:17:17;14.90;;;11.50;;
8871;SDS011;4472;52.092;9.820;2023-06-22T01:20:08;19.27;;;11.73;;
8871;SDS011;4472;52.092;9.820;2023-06-22T01:23:05;16.67;;;10.70;;
8871;SDS011;4472;52.092;9.820;2023-06-22T01:25:59;16.60;;;11.10;;
8871;SDS011;4472;52.092;9.820;2023-06-22T01:28:56;15.43;;;10.93;;
8871;SDS011;4472;52.092;9.820;2023-06-22T01:31:45;16.57;;;11.60;;
8871;SDS011;4472;52.092;9.820;2023-06-22T01:34:34;31.73;;;12.27;;
8871;SDS011;4472;52.092;9.820;2023-06-22T01:37:22;21.93;;;12.50;;
8871;SDS011;4472;52.092;9.820;2023-06-22T01:40:10;21.27;;;11.80;;
8871;SDS011;4472;52.092;9.820;2023-06-22T01:42:58;24.93;;;13.07;;
8871;SDS011;4472;52.092;9.820;2023-06-22T01:45:48;22.83;;;12.43;;
8871;SDS011;4472;52.092;9.820;2023-06-22T01:48:35;16.93;;;11.93;;
8871;SDS011;4472;52.092;9.820;2023-06-22T01:51:23;17.83;;;11.97;;
8871;SDS011;4472;52.092;9.820;2023-06-22T01:54:10;20.70;;;13.33;;
8871;SDS011;4472;52.092;9.820;2023-06-22T01:56:57;19.07;;;11.80;;
8871;SDS011;4472;52.092;9.820;2023-06-22T01:59:46;14.97;;;12.07;;
8871;SDS011;4472;52.092;9.820;2023-06-22T02:02:43;25.00;;;13.27;;
8871;SDS011;4472;52.092;9.820;2023-06-22T02:05:34;27.13;;;13.40;;
8871;SDS011;4472;52.092;9.820;2023-06-22T02:08:28;22.53;;;13.17;;
8871;SDS011;4472;52.092;9.820;2023-06-22T02:11:18;21.67;;;12.50;;
8871;SDS011;4472;52.092;9.820;2023-06-22T02:14:07;22.07;;;12.93;;
8871;SDS011;4472;52.092;9.820;2023-06-22T02:16:54;33.70;;;14.17;;
8871;SDS011;4472;52.092;9.820;2023-06-22T02:19:45;26.77;;;13.63;;
8871;SDS011;4472;52.092;9.820;2023-06-22T02:22:32;21.53;;;12.90;;
8871;SDS011;4472;52.092;9.820;2023-06-22T02:25:20;29.47;;;13.93;;
8871;SDS011;4472;52.092;9.820;2023-06-22T02:28:07;20.30;;;13.60;;
8871;SDS011;4472;52.092;9.820;2023-06-22T02:30:54;26.30;;;14.10;;
8871;SDS011;4472;52.092;9.820;2023-06-22T02:33:41;26.17;;;14.87;;
8871;SDS011;4472;52.092;9.820;2023-06-22T02:36:30;22.67;;;14.53;;
8871;SDS011;4472;52.092;9.820;2023-06-22T02:39:19;24.63;;;14.87;;
8871;SDS011;4472;52.092;9.820;2023-06-22T02:42:07;24.47;;;14.13;;
8871;SDS011;4472;52.092;9.820;2023-06-22T02:44:56;27.10;;;14.70;;
8871;SDS011;4472;52.092;9.820;2023-06-22T02:47:44;25.23;;;14.10;;
8871;SDS011;4472;52.092;9.820;2023-06-22T02:50:33;26.27;;;14.20;;
8871;SDS011;4472;52.092;9.820;2023-06-22T02:53:21;24.53;;;14.57;;
8871;SDS011;4472;52.092;9.820;2023-06-22T02:56:08;25.47;;;13.77;;
8871;SDS011;4472;52.092;9.820;2023-06-22T02:58:55;25.03;;;14.53;;
8871;SDS011;4472;52.092;9.820;2023-06-22T03:01:46;33.40;;;15.47;;
8871;SDS011;4472;52.092;9.820;2023-06-22T03:04:33;29.27;;;14.77;;
8871;SDS011;4472;52.092;9.820;2023-06-22T03:07:21;27.67;;;15.03;;
8871;SDS011;4472;52.092;9.820;2023-06-22T03:10:10;32.00;;;14.97;;
8871;SDS011;4472;52.092;9.820;2023-06-22T03:12:58;24.50;;;13.40;;
8871;SDS011;4472;52.092;9.820;2023-06-22T03:15:45;29.93;;;14.17;;
8871;SDS011;4472;52.092;9.820;2023-06-22T03:18:32;31.13;;;15.13;;
8871;SDS011;4472;52.092;9.820;2023-06-22T03:21:19;30.30;;;15.10;;
8871;SDS011;4472;52.092;9.820;2023-06-22T03:24:08;26.70;;;14.27;;
8871;SDS011;4472;52.092;9.820;2023-06-22T03:26:57;31.40;;;14.33;;
8871;SDS011;4472;52.092;9.820;2023-06-22T03:29:44;30.87;;;14.77;;
8871;SDS011;4472;52.092;9.820;2023-06-22T03:32:31;23.37;;;14.47;;
8871;SDS011;4472;52.092;9.820;2023-06-22T03:35:18;33.73;;;15.43;;
8871;SDS011;4472;52.092;9.820;2023-06-22T03:38:05;26.43;;;14.40;;
8871;SDS011;4472;52.092;9.820;2023-06-22T03:40:52;27.43;;;13.77;;
8871;SDS011;4472;52.092;9.820;2023-06-22T03:43:41;24.60;;;14.03;;
8871;SDS011;4472;52.092;9.820;2023-06-22T03:46:28;23.10;;;14.63;;
8871;SDS011;4472;52.092;9.820;2023-06-22T03:49:15;23.03;;;14.00;;
8871;SDS011;4472;52.092;9.820;2023-06-22T03:52:03;24.00;;;13.37;;
8871;SDS011;4472;52.092;9.820;2023-06-22T03:54:50;26.40;;;14.70;;
8871;SDS011;4472;52.092;9.820;2023-06-22T03:57:37;27.40;;;14.13;;
8871;SDS011;4472;52.092;9.820;2023-06-22T04:00:26;22.37;;;13.67;;
8871;SDS011;4472;52.092;9.820;2023-06-22T04:03:13;25.27;;;14.87;;
8871;SDS011;4472;52.092;9.820;2023-06-22T04:06:00;18.10;;;12.83;;
8871;SDS011;4472;52.092;9.820;2023-06-22T04:08:48;31.07;;;12.97;;
8871;SDS011;4472;52.092;9.820;2023-06-22T04:11:36;22.77;;;13.53;;
8871;SDS011;4472;52.092;9.820;2023-06-22T04:14:23;27.97;;;14.33;;
8871;SDS011;4472;52.092;9.820;2023-06-22T04:17:12;27.13;;;14.47;;
8871;SDS011;4472;52.092;9.820;2023-06-22T04:20:00;30.73;;;14.10;;
8871;SDS011;4472;52.092;9.820;2023-06-22T04:22:49;27.07;;;14.20;;
8871;SDS011;4472;52.092;9.820;2023-06-22T04:25:36;23.07;;;14.13;;
8871;SDS011;4472;52.092;9.820;2023-06-22T04:28:23;22.97;;;13.90;;
8871;SDS011;4472;52.092;9.820;2023-06-22T04:31:10;21.70;;;13.93;;
8871;SDS011;4472;52.092;9.820;2023-06-22T04:33:59;23.43;;;14.73;;
8871;SDS011;4472;52.092;9.820;2023-06-22T04:36:51;24.43;;;14.53;;
8871;SDS011;4472;52.092;9.820;2023-06-22T04:39:38;17.37;;;13.97;;
8871;SDS011;4472;52.092;9.820;2023-06-22T04:42:26;19.07;;;13.93;;
8871;SDS011;4472;52.092;9.820;2023-06-22T04:45:13;23.43;;;13.97;;
8871;SDS011;4472;52.092;9.820;2023-06-22T04:48:00;22.87;;;14.87;;
8871;SDS011;4472;52.092;9.820;2023-06-22T04:50:49;24.27;;;14.80;;
8871;SDS011;4472;52.092;9.820;2023-06-22T04:53:36;20.63;;;13.27;;
8871;SDS011;4472;52.092;9.820;2023-06-22T04:56:26;22.70;;;15.40;;
8871;SDS011;4472;52.092;9.820;2023-06-22T04:59:14;18.17;;;14.03;;
8871;SDS011;4472;52.092;9.820;2023-06-22T05:02:04;24.17;;;14.43;;
8871;SDS011;4472;52.092;9.820;2023-06-22T05:04:52;24.73;;;15.13;;
8871;SDS011;4472;52.092;9.820;2023-06-22T05:07:44;26.23;;;15.53;;
8871;SDS011;4472;52.092;9.820;2023-06-22T05:10:33;21.07;;;15.10;;
8871;SDS011;4472;52.092;9.820;2023-06-22T05:13:20;24.63;;;16.20;;
8871;SDS011;4472;52.092;9.820;2023-06-22T05:16:11;21.37;;;14.60;;
8871;SDS011;4472;52.092;9.820;2023-06-22T05:18:58;22.23;;;16.07;;
8871;SDS011;4472;52.092;9.820;2023-06-22T05:21:48;28.80;;;16.47;;
8871;SDS011;4472;52.092;9.820;2023-06-22T05:24:37;28.83;;;15.70;;
8871;SDS011;4472;52.092;9.820;2023-06-22T05:27:24;24.20;;;15.00;;
8871;SDS011;4472;52.092;9.820;2023-06-22T05:30:11;24.47;;;16.53;;
8871;SDS011;4472;52.092;9.820;2023-06-22T05:32:58;22.37;;;15.70;;
8871;SDS011;4472;52.092;9.820;2023-06-22T05:35:45;21.53;;;16.77;;
8871;SDS011;4472;52.092;9.820;2023-06-22T05:38:33;22.23;;;17.70;;
8871;SDS011;4472;52.092;9.820;2023-06-22T05:41:21;18.93;;;16.83;;
8871;SDS011;4472;52.092;9.820;2023-06-22T05:44:09;19.13;;;16.00;;
8871;SDS011;4472;52.092;9.820;2023-06-22T05:46:56;23.50;;;17.37;;
8871;SDS011;4472;52.092;9.820;2023-06-22T05:49:43;26.60;;;17.27;;
8871;SDS011;4472;52.092;9.820;2023-06-22T05:52:30;20.33;;;17.30;;
8871;SDS011;4472;52.092;9.820;2023-06-22T05:55:18;25.10;;;17.03;;
8871;SDS011;4472;52.092;9.820;2023-06-22T05:58:06;20.17;;;16.47;;
8871;SDS011;4472;52.092;9.820;2023-06-22T06:00:54;20.87;;;16.80;;
8871;SDS011;4472;52.092;9.820;2023-06-22T06:03:41;23.40;;;17.33;;
8871;SDS011;4472;52.092;9.820;2023-06-22T06:06:29;20.43;;;17.43;;
8871;SDS011;4472;52.092;9.820;2023-06-22T06:09:17;23.03;;;17.13;;
8871;SDS011;4472;52.092;9.820;2023-06-22T06:12:04;19.50;;;16.87;;
8871;SDS011;4472;52.092;9.820;2023-06-22T06:14:53;23.83;;;17.90;;
8871;SDS011;4472;52.092;9.820;2023-06-22T06:17:45;25.87;;;18.33;;
8871;SDS011;4472;52.092;9.820;2023-06-22T06:20:33;20.60;;;17.03;;
8871;SDS011;4472;52.092;9.820;2023-06-22T06:23:21;25.13;;;18.23;;
8871;SDS011;4472;52.092;9.820;2023-06-22T06:26:08;19.87;;;16.80;;
8871;SDS011;4472;52.092;9.820;2023-06-22T06:28:55;22.80;;;16.77;;
8871;SDS011;4472;52.092;9.820;2023-06-22T06:31:45;22.47;;;17.63;;
8871;SDS011;4472;52.092;9.820;2023-06-22T06:34:33;22.53;;;17.97;;
8871;SDS011;4472;52.092;9.820;2023-06-22T06:37:20;23.33;;;17.90;;
8871;SDS011;4472;52.092;9.820;2023-06-22T06:40:09;19.07;;;15.93;;
8871;SDS011;4472;52.092;9.820;2023-06-22T06:42:57;21.60;;;15.57;;
8871;SDS011;4472;52.092;9.820;2023-06-22T06:45:44;21.73;;;16.47;;
8871;SDS011;4472;52.092;9.820;2023-06-22T06:48:33;19.53;;;16.90;;
8871;SDS011;4472;52.092;9.820;2023-06-22T06:51:20;25.47;;;15.23;;
8871;SDS011;4472;52.092;9.820;2023-06-22T06:54:07;18.63;;;15.37;;
8871;SDS011;4472;52.092;9.820;2023-06-22T06:56:55;18.87;;;15.87;;
8871;SDS011;4472;52.092;9.820;2023-06-22T06:59:42;18.70;;;15.73;;
8871;SDS011;4472;52.092;9.820;2023-06-22T07:02:29;18.13;;;16.23;;
8871;SDS011;4472;52.092;9.820;2023-06-22T07:05:18;20.30;;;15.77;;
8871;SDS011;4472;52.092;9.820;2023-06-22T07:08:05;25.17;;;16.33;;
8871;SDS011;4472;52.092;9.820;2023-06-22T07:10:52;22.03;;;15.57;;
8871;SDS011;4472;52.092;9.820;2023-06-22T07:13:39;21.30;;;16.83;;
8871;SDS011;4472;52.092;9.820;2023-06-22T07:16:26;21.60;;;16.77;;
8871;SDS011;4472;52.092;9.820;2023-06-22T07:19:15;18.37;;;16.40;;
8871;SDS011;4472;52.092;9.820;2023-06-22T07:22:04;18.60;;;16.30;;
8871;SDS011;4472;52.092;9.820;2023-06-22T07:24:51;20.00;;;15.90;;
8871;SDS011;4472;52.092;9.820;2023-06-22T07:27:39;17.80;;;16.00;;
8871;SDS011;4472;52.092;9.820;2023-06-22T07:30:30;21.47;;;17.10;;
8871;SDS011;4472;52.092;9.820;2023-06-22T07:33:19;19.33;;;16.90;;
8871;SDS011;4472;52.092;9.820;2023-06-22T07:36:06;19.83;;;17.73;;
8871;SDS011;4472;52.092;9.820;2023-06-22T07:38:55;19.23;;;17.10;;
8871;SDS011;4472;52.092;9.820;2023-06-22T07:41:42;21.20;;;17.03;;
8871;SDS011;4472;52.092;9.820;2023-06-22T07:44:29;21.80;;;17.20;;
8871;SDS011;4472;52.092;9.820;2023-06-22T07:47:16;20.87;;;17.00;;
8871;SDS011;4472;52.092;9.820;2023-06-22T07:50:05;18.97;;;16.97;;
8871;SDS011;4472;52.092;9.820;2023-06-22T07:52:52;20.17;;;17.60;;
8871;SDS011;4472;52.092;9.820;2023-06-22T07:55:41;22.73;;;17.90;;
8871;SDS011;4472;52.092;9.820;2023-06-22T07:58:28;28.57;;;17.77;;
8871;SDS011;4472;52.092;9.820;2023-06-22T08:01:16;21.77;;;16.47;;
8871;SDS011;4472;52.092;9.820;2023-06-22T08:04:06;21.33;;;18.13;;
8871;SDS011;4472;52.092;9.820;2023-06-22T08:06:54;19.13;;;17.13;;
8871;SDS011;4472;52.092;9.820;2023-06-22T08:09:45;24.73;;;16.90;;
8871;SDS011;4472;52.092;9.820;2023-06-22T08:12:35;23.40;;;17.73;;
8871;SDS011;4472;52.092;9.820;2023-06-22T08:15:22;21.00;;;16.13;;
8871;SDS011;4472;52.092;9.820;2023-06-22T08:18:09;23.10;;;18.10;;
8871;SDS011;4472;52.092;9.820;2023-06-22T08:20:56;20.33;;;18.23;;
8871;SDS011;4472;52.092;9.820;2023-06-22T08:23:43;20.30;;;16.00;;
8871;SDS011;4472;52.092;9.820;2023-06-22T08:26:30;19.23;;;17.17;;
8871;SDS011;4472;52.092;9.820;2023-06-22T08:29:22;22.03;;;18.53;;
8871;SDS011;4472;52.092;9.820;2023-06-22T08:32:09;23.00;;;17.97;;
8871;SDS011;4472;52.092;9.820;2023-06-22T08:34:57;22.57;;;17.60;;
8871;SDS011;4472;52.092;9.820;2023-06-22T08:37:44;19.00;;;17.00;;
8871;SDS011;4472;52.092;9.820;2023-06-22T08:40:37;22.13;;;17.10;;
8871;SDS011;4472;52.092;9.820;2023-06-22T08:43:25;21.60;;;17.03;;
8871;SDS011;4472;52.092;9.820;2023-06-22T08:46:13;21.17;;;17.27;;
8871;SDS011;4472;52.092;9.820;2023-06-22T08:49:05;20.10;;;18.03;;
8871;SDS011;4472;52.092;9.820;2023-06-22T08:51:52;24.27;;;18.20;;
8871;SDS011;4472;52.092;9.820;2023-06-22T08:54:41;23.23;;;17.83;;
8871;SDS011;4472;52.092;9.820;2023-06-22T08:57:28;19.43;;;17.43;;
8871;SDS011;4472;52.092;9.820;2023-06-22T09:00:16;20.27;;;17.83;;
8871;SDS011;4472;52.092;9.820;2023-06-22T09:03:06;22.47;;;17.53;;
8871;SDS011;4472;52.092;9.820;2023-06-22T09:05:54;18.33;;;15.80;;
8871;SDS011;4472;52.092;9.820;2023-06-22T09:08:41;13.83;;;12.07;;
8871;SDS011;4472;52.092;9.820;2023-06-22T09:11:28;13.60;;;11.53;;
8871;SDS011;4472;52.092;9.820;2023-06-22T09:14:15;12.53;;;11.03;;
8871;SDS011;4472;52.092;9.820;2023-06-22T09:17:02;12.40;;;11.10;;
8871;SDS011;4472;52.092;9.820;2023-06-22T09:19:51;13.27;;;11.93;;
8871;SDS011;4472;52.092;9.820;2023-06-22T09:22:38;12.37;;;11.10;;
8871;SDS011;4472;52.092;9.820;2023-06-22T09:25:26;12.33;;;11.03;;
8871;SDS011;4472;52.092;9.820;2023-06-22T09:28:13;18.33;;;11.77;;
8871;SDS011;4472;52.092;9.820;2023-06-22T09:31:00;12.70;;;11.43;;
8871;SDS011;4472;52.092;9.820;2023-06-22T09:33:47;12.23;;;10.90;;
8871;SDS011;4472;52.092;9.820;2023-06-22T09:36:36;11.90;;;10.80;;
8871;SDS011;4472;52.092;9.820;2023-06-22T09:39:25;13.33;;;10.60;;
8871;SDS011;4472;52.092;9.820;2023-06-22T09:42:12;13.33;;;11.10;;
8871;SDS011;4472;52.092;9.820;2023-06-22T09:44:59;11.63;;;10.63;;
8871;SDS011;4472;52.092;9.820;2023-06-22T09:47:47;13.13;;;11.00;;
8871;SDS011;4472;52.092;9.820;2023-06-22T09:50:34;12.20;;;10.93;;
8871;SDS011;4472;52.092;9.820;2023-06-22T09:53:23;14.13;;;10.07;;
8871;SDS011;4472;52.092;9.820;2023-06-22T09:56:10;13.57;;;10.07;;
8871;SDS011;4472;52.092;9.820;2023-06-22T09:59:00;13.53;;;10.47;;
8871;SDS011;4472;52.092;9.820;2023-06-22T10:01:47;14.10;;;11.03;;
8871;SDS011;4472;52.092;9.820;2023-06-22T10:04:34;11.77;;;10.40;;
8871;SDS011;4472;52.092;9.820;2023-06-22T10:07:22;12.17;;;10.93;;
8871;SDS011;4472;52.092;9.820;2023-06-22T10:10:10;10.77;;;9.77;;
8871;SDS011;4472;52.092;9.820;2023-06-22T10:13:02;12.20;;;11.10;;
8871;SDS011;4472;52.092;9.820;2023-06-22T10:15:54;12.37;;;11.03;;
8871;SDS011;4472;52.092;9.820;2023-06-22T10:18:41;15.17;;;10.67;;
8871;SDS011;4472;52.092;9.820;2023-06-22T10:21:28;12.00;;;10.77;;
8871;SDS011;4472;52.092;9.820;2023-06-22T10:24:15;11.07;;;9.97;;
8871;SDS011;4472;52.092;9.820;2023-06-22T10:27:04;15.80;;;11.13;;
8871;SDS011;4472;52.092;9.820;2023-06-22T10:29:52;11.90;;;9.77;;
8871;SDS011;4472;52.092;9.820;2023-06-22T10:32:39;12.57;;;11.27;;
8871;SDS011;4472;52.092;9.820;2023-06-22T10:35:27;13.20;;;11.90;;
8871;SDS011;4472;52.092;9.820;2023-06-22T10:38:14;12.10;;;10.67;;
8871;SDS011;4472;52.092;9.820;2023-06-22T10:41:01;13.53;;;10.80;;
8871;SDS011;4472;52.092;9.820;2023-06-22T10:43:50;11.67;;;9.63;;
8871;SDS011;4472;52.092;9.820;2023-06-22T10:46:37;10.97;;;9.93;;
8871;SDS011;4472;52.092;9.820;2023-06-22T10:49:24;12.83;;;9.70;;
8871;SDS011;4472;52.092;9.820;2023-06-22T10:52:11;12.70;;;11.10;;
8871;SDS011;4472;52.092;9.820;2023-06-22T10:54:59;12.10;;;10.17;;
8871;SDS011;4472;52.092;9.820;2023-06-22T10:57:46;12.73;;;9.87;;
8871;SDS011;4472;52.092;9.820;2023-06-22T11:00:34;11.90;;;10.68;;
8871;SDS011;4472;52.092;9.820;2023-06-22T11:03:22;9.27;;;8.43;;
8871;SDS011;4472;52.092;9.820;2023-06-22T11:06:09;11.40;;;10.30;;
8871;SDS011;4472;52.092;9.820;2023-06-22T11:08:56;10.35;;;9.38;;
8871;SDS011;4472;52.092;9.820;2023-06-22T11:11:44;11.43;;;10.32;;
8871;SDS011;4472;52.092;9.820;2023-06-22T11:14:31;12.00;;;10.73;;
8871;SDS011;4472;52.092;9.820;2023-06-22T11:17:21;13.23;;;10.40;;
8871;SDS011;4472;52.092;9.820;2023-06-22T11:20:08;10.82;;;9.80;;
8871;SDS011;4472;52.092;9.820;2023-06-22T11:22:56;11.35;;;10.25;;
8871;SDS011;4472;52.092;9.820;2023-06-22T11:25:43;11.57;;;10.45;;
8871;SDS011;4472;52.092;9.820;2023-06-22T11:28:31;11.23;;;10.07;;
8871;SDS011;4472;52.092;9.820;2023-06-22T11:31:18;11.85;;;10.73;;
8871;SDS011;4472;52.092;9.820;2023-06-22T11:34:07;11.25;;;10.13;;
8871;SDS011;4472;52.092;9.820;2023-06-22T11:36:54;11.88;;;10.55;;
8871;SDS011;4472;52.092;9.820;2023-06-22T11:39:41;12.45;;;11.10;;
8871;SDS011;4472;52.092;9.820;2023-06-22T11:42:28;9.63;;;8.73;;
8871;SDS011;4472;52.092;9.820;2023-06-22T11:45:16;11.60;;;10.50;;
8871;SDS011;4472;52.092;9.820;2023-06-22T11:48:04;11.13;;;10.02;;
8871;SDS011;4472;52.092;9.820;2023-06-22T11:50:54;11.68;;;10.57;;
8871;SDS011;4472;52.092;9.820;2023-06-22T11:53:41;12.05;;;10.85;;
8871;SDS011;4472;52.092;9.820;2023-06-22T11:56:28;13.00;;;11.70;;
8871;SDS011;4472;52.092;9.820;2023-06-22T11:59:15;7.72;;;7.13;;
8871;SDS011;4472;52.092;9.820;2023-06-22T12:02:02;12.55;;;11.32;;
8871;SDS011;4472;52.092;9.820;2023-06-22T12:04:51;12.95;;;11.65;;
8871;SDS011;4472;52.092;9.820;2023-06-22T12:07:42;13.05;;;11.85;;
8871;SDS011;4472;52.092;9.820;2023-06-22T12:10:29;13.38;;;11.68;;
8871;SDS011;4472;52.092;9.820;2023-06-22T12:13:16;11.48;;;10.35;;
8871;SDS011;4472;52.092;9.820;2023-06-22T12:16:04;11.10;;;10.07;;
8871;SDS011;4472;52.092;9.820;2023-06-22T12:18:51;10.40;;;9.43;;
8871;SDS011;4472;52.092;9.820;2023-06-22T12:21:39;11.50;;;10.32;;
8871;SDS011;4472;52.092;9.820;2023-06-22T12:24:28;11.35;;;10.25;;
8871;SDS011;4472;52.092;9.820;2023-06-22T12:27:15;10.65;;;9.75;;
8871;SDS011;4472;52.092;9.820;2023-06-22T12:30:03;10.13;;;9.23;;
8871;SDS011;4472;52.092;9.820;2023-06-22T12:32:51;10.57;;;9.57;;
8871;SDS011;4472;52.092;9.820;2023-06-22T12:35:38;9.77;;;8.75;;
8871;SDS011;4472;52.092;9.820;2023-06-22T12:38:25;9.88;;;8.98;;
8871;SDS011;4472;52.092;9.820;2023-06-22T12:41:14;12.48;;;9.88;;
8871;SDS011;4472;52.092;9.820;2023-06-22T12:44:01;11.27;;;9.73;;
8871;SDS011;4472;52.092;9.820;2023-06-22T12:46:49;12.05;;;10.70;;
8871;SDS011;4472;52.092;9.820;2023-06-22T12:49:36;12.10;;;10.82;;
8871;SDS011;4472;52.092;9.820;2023-06-22T12:52:23;12.30;;;10.88;;
8871;SDS011;4472;52.092;9.820;2023-06-22T12:55:10;12.05;;;10.85;;
8871;SDS011;4472;52.092;9.820;2023-06-22T12:57:59;12.57;;;11.32;;
8871;SDS011;4472;52.092;9.820;2023-06-22T13:00:46;10.70;;;9.65;;
8871;SDS011;4472;52.092;9.820;2023-06-22T13:03:33;11.43;;;10.35;;
8871;SDS011;4472;52.092;9.820;2023-06-22T13:06:20;12.18;;;10.93;;
8871;SDS011;4472;52.092;9.820;2023-06-22T13:09:09;12.43;;;11.38;;
8871;SDS011;4472;52.092;9.820;2023-06-22T13:11:56;11.60;;;10.35;;
8871;SDS011;4472;52.092;9.820;2023-06-22T13:18:27;9.82;;;9.02;;
8871;SDS011;4472;52.092;9.820;2023-06-22T13:21:14;9.52;;;8.52;;
8871;SDS011;4472;52.092;9.820;2023-06-22T13:24:01;10.50;;;9.57;;
8871;SDS011;4472;52.092;9.820;2023-06-22T13:26:50;9.57;;;8.68;;
8871;SDS011;4472;52.092;9.820;2023-06-22T13:29:37;10.75;;;9.57;;
8871;SDS011;4472;52.092;9.820;2023-06-22T13:32:24;12.93;;;10.02;;
8871;SDS011;4472;52.092;9.820;2023-06-22T13:35:12;12.07;;;10.88;;
8871;SDS011;4472;52.092;9.820;2023-06-22T13:37:59;10.80;;;9.57;;
8871;SDS011;4472;52.092;9.820;2023-06-22T13:40:47;11.40;;;9.65;;
8871;SDS011;4472;52.092;9.820;2023-06-22T13:43:34;10.75;;;9.70;;
8871;SDS011;4472;52.092;9.820;2023-06-22T13:46:21;10.75;;;9.75;;
8871;SDS011;4472;52.092;9.820;2023-06-22T13:49:08;10.77;;;9.80;;
8871;SDS011;4472;52.092;9.820;2023-06-22T13:51:57;11.23;;;10.20;;
8871;SDS011;4472;52.092;9.820;2023-06-22T13:54:44;10.73;;;9.75;;
8871;SDS011;4472;52.092;9.820;2023-06-22T13:57:31;12.07;;;10.93;;
8871;SDS011;4472;52.092;9.820;2023-06-22T14:00:18;11.53;;;10.43;;
8871;SDS011;4472;52.092;9.820;2023-06-22T14:03:05;12.93;;;11.67;;
8871;SDS011;4472;52.092;9.820;2023-06-22T14:05:53;12.30;;;11.30;;
8871;SDS011;4472;52.092;9.820;2023-06-22T14:08:43;15.27;;;12.40;;
8871;SDS011;4472;52.092;9.820;2023-06-22T14:11:30;15.20;;;12.57;;
8871;SDS011;4472;52.092;9.820;2023-06-22T14:14:17;13.13;;;11.85;;
8871;SDS011;4472;52.092;9.820;2023-06-22T14:17:05;13.67;;;12.27;;
8871;SDS011;4472;52.092;9.820;2023-06-22T14:19:52;12.75;;;11.65;;
8871;SDS011;4472;52.092;9.820;2023-06-22T14:22:40;13.10;;;11.80;;
8871;SDS011;4472;52.092;9.820;2023-06-22T14:25:29;14.73;;;12.03;;
8871;SDS011;4472;52.092;9.820;2023-06-22T14:28:16;13.10;;;11.82;;
8871;SDS011;4472;52.092;9.820;2023-06-22T14:31:03;12.65;;;11.45;;
8871;SDS011;4472;52.092;9.820;2023-06-22T14:33:50;14.20;;;12.80;;
8871;SDS011;4472;52.092;9.820;2023-06-22T14:36:37;12.43;;;11.23;;
8871;SDS011;4472;52.092;9.820;2023-06-22T14:39:24;13.93;;;12.63;;
8871;SDS011;4472;52.092;9.820;2023-06-22T14:42:13;14.20;;;11.65;;
8871;SDS011;4472;52.092;9.820;2023-06-22T14:45:00;12.00;;;10.95;;
8871;SDS011;4472;52.092;9.820;2023-06-22T14:47:47;13.02;;;11.82;;
8871;SDS011;4472;52.092;9.820;2023-06-22T14:50:34;15.77;;;11.50;;
8871;SDS011;4472;52.092;9.820;2023-06-22T14:53:22;12.75;;;11.55;;
8871;SDS011;4472;52.092;9.820;2023-06-22T14:56:09;13.43;;;12.23;;
8871;SDS011;4472;52.092;9.820;2023-06-22T14:58:59;12.80;;;11.70;;
8871;SDS011;4472;52.092;9.820;2023-06-22T15:01:46;13.43;;;12.13;;
8871;SDS011;4472;52.092;9.820;2023-06-22T15:04:33;13.80;;;11.70;;
8871;SDS011;4472;52.092;9.820;2023-06-22T15:07:20;13.67;;;12.43;;
8871;SDS011;4472;52.092;9.820;2023-06-22T15:10:08;13.57;;;12.20;;
8871;SDS011;4472;52.092;9.820;2023-06-22T15:12:55;13.27;;;11.93;;
8871;SDS011;4472;52.092;9.820;2023-06-22T15:15:44;13.73;;;12.33;;
8871;SDS011;4472;52.092;9.820;2023-06-22T15:18:32;14.87;;;12.27;;
8871;SDS011;4472;52.092;9.820;2023-06-22T15:21:20;14.93;;;13.53;;
8871;SDS011;4472;52.092;9.820;2023-06-22T15:24:08;16.13;;;14.70;;
8871;SDS011;4472;52.092;9.820;2023-06-22T15:26:55;17.13;;;15.43;;
8871;SDS011;4472;52.092;9.820;2023-06-22T15:29:42;26.13;;;16.83;;
8871;SDS011;4472;52.092;9.820;2023-06-22T15:32:30;24.37;;;18.87;;
8871;SDS011;4472;52.092;9.820;2023-06-22T15:35:18;26.23;;;20.47;;
8871;SDS011;4472;52.092;9.820;2023-06-22T15:38:05;27.63;;;20.50;;
8871;SDS011;4472;52.092;9.820;2023-06-22T15:40:52;19.10;;;14.77;;
8871;SDS011;4472;52.092;9.820;2023-06-22T15:43:39;20.70;;;14.90;;
8871;SDS011;4472;52.092;9.820;2023-06-22T15:46:26;22.67;;;16.30;;
8871;SDS011;4472;52.092;9.820;2023-06-22T15:49:15;13.90;;;11.50;;
8871;SDS011;4472;52.092;9.820;2023-06-22T15:52:02;12.27;;;9.87;;
8871;SDS011;4472;52.092;9.820;2023-06-22T15:54:50;11.97;;;7.70;;
8871;SDS011;4472;52.092;9.820;2023-06-22T15:57:39;10.20;;;7.33;;
8871;SDS011;4472;52.092;9.820;2023-06-22T16:00:26;9.93;;;6.33;;
8871;SDS011;4472;52.092;9.820;2023-06-22T16:03:14;7.60;;;5.37;;
8871;SDS011;4472;52.092;9.820;2023-06-22T16:06:02;7.03;;;5.83;;
8871;SDS011;4472;52.092;9.820;2023-06-22T16:08:49;9.13;;;6.77;;
8871;SDS011;4472;52.092;9.820;2023-06-22T16:11:36;8.33;;;6.60;;
8871;SDS011;4472;52.092;9.820;2023-06-22T16:14:24;8.57;;;5.63;;
8871;SDS011;4472;52.092;9.820;2023-06-22T16:17:11;9.37;;;5.37;;
8871;SDS011;4472;52.092;9.820;2023-06-22T16:19:58;7.77;;;5.80;;
8871;SDS011;4472;52.092;9.820;2023-06-22T16:22:46;9.07;;;7.83;;
8871;SDS011;4472;52.092;9.820;2023-06-22T16:25:33;10.07;;;8.80;;
8871;SDS011;4472;52.092;9.820;2023-06-22T16:28:21;9.03;;;7.77;;
8871;SDS011;4472;52.092;9.820;2023-06-22T16:31:08;8.83;;;7.80;;
8871;SDS011;4472;52.092;9.820;2023-06-22T16:33:55;9.30;;;8.40;;
8871;SDS011;4472;52.092;9.820;2023-06-22T16:36:42;9.80;;;8.80;;
8871;SDS011;4472;52.092;9.820;2023-06-22T16:39:31;8.77;;;7.97;;
8871;SDS011;4472;52.092;9.820;2023-06-22T16:42:18;7.47;;;6.87;;
8871;SDS011;4472;52.092;9.820;2023-06-22T16:45:05;12.13;;;6.20;;
8871;SDS011;4472;52.092;9.820;2023-06-22T16:47:53;6.40;;;5.63;;
8871;SDS011;4472;52.092;9.820;2023-06-22T16:50:40;7.80;;;7.10;;
8871;SDS011;4472;52.092;9.820;2023-06-22T16:53:27;7.23;;;6.53;;
8871;SDS011;4472;52.092;9.820;2023-06-22T16:56:16;6.83;;;6.23;;
8871;SDS011;4472;52.092;9.820;2023-06-22T16:59:03;7.80;;;7.00;;